Tropical Cyclones
[Index]
Main Index Home Page Stock Weather Photos Extreme Storms Discussion Storm News and Storm Chasing Reports Tropical Cyclones / Hurricanes / Typhoons Weather Data and Links Wild Fires / Bushfires Weather Observation Techniques Weather Picture Catalogue Tornado Pictures and Reports Stock Video Footage and DVDs for sale
Season 1959-1960 Tropical Cyclone 196017 Track Map
Season 1959-1960 Summaries: [BoM-AU] [JTWC-AU] [JTWC-SIO] [JTWC-SPAC] [JTWC-SH]
<<- Previous TC | JTWC 1959-1960 Season | Next TC ->>

click for intensity scale information  Lat/long Grid: Show Hide

 Date Labels: Show Hide

Joint Typhoon Warning Centre Cyclone Data

Name: 196017
Number: 387 / 6017

15 Mar 1960 00:00 UTC to 27 Mar 1960 18:00 UTC

    date/time    lat    long     hPa   cat  kts
1960-03-15 00   12.2   148.8                              
1960-03-15 06   12.3   148.5                              
1960-03-15 12   12.3   148.1                              
1960-03-15 18   12.3   147.7                              
1960-03-16 00   12.3   147.3                              
1960-03-16 06   12.3   147.1                              
1960-03-16 12   12.3   146.9                              
1960-03-16 18   12.3   146.5                              
1960-03-17 00   12.3   146.3                              
1960-03-17 06   12.3   146.1                              
1960-03-17 12   12.3   145.9                              
1960-03-17 18   12.3   145.6                              
1960-03-18 00   12.3   145.4                              
1960-03-18 06   12.2   145.2                              
1960-03-18 12   12.2   145.0                              
1960-03-18 18   12.2   144.7                              
1960-03-19 00   12.2   144.5                              
1960-03-19 06   12.2   144.2                              
1960-03-19 12   12.2   144.0                              
1960-03-19 18   12.2   143.7                              
1960-03-20 00   12.2   143.3                              
1960-03-20 06   12.2   142.8                              
1960-03-20 12   12.3   142.1                              
1960-03-20 18   12.5   141.5                              
1960-03-21 00   12.7   140.5                              
1960-03-21 06   12.9   138.9                              
1960-03-21 12   13.1   137.2                              
1960-03-21 18   12.5   135.5                              
1960-03-22 00   12.0   133.9                              
1960-03-22 06   13.2   132.7                              
1960-03-22 12   13.9   131.5                              
1960-03-22 18   13.3   130.1                              
1960-03-23 00   13.0   128.7                              
1960-03-23 06   13.1   127.3                              
1960-03-23 12   13.2   126.0                              
1960-03-23 18   13.5   124.5                              
1960-03-24 00   13.9   123.1                              
1960-03-24 06   14.3   121.8                              
1960-03-24 12   14.8   120.5                              
1960-03-24 18   15.5   119.0                              
1960-03-25 00   16.2   117.9                              
1960-03-25 06   16.9   117.1                              
1960-03-25 12   17.5   116.3                              
1960-03-25 18   18.4   115.5                              
1960-03-26 00   19.9   114.7                              
1960-03-26 06   22.1   114.1                              
1960-03-26 12   24.2   113.9                              
1960-03-26 18   26.2   114.2                              
1960-03-27 00   28.1   114.8                              
1960-03-27 06   30.2   115.8                              
1960-03-27 12   32.4   116.7                              
1960-03-27 18   34.6   117.2                              
Winds are 1-min average.

Tropical cyclone tracks developed by Michael Bath using data from the Joint Typhoon Warning Centre Best Tracks and Google Maps.


[Australian Severe Weather index] [Copyright Notice] [Email Contacts] [Search This Site] [Privacy Policy]
Document: tropical_cyclone_196017.htm Updated: 18 September 2016